Time;durP1;ratioP1;P1;durP2;ratioP2;P2;SDS_P1;SDS_P2;PMS_P1;PMS_P2;Temp;Humidity;BMP_temperature;BMP_pressure;BME280_temperature;BME280_humidity;BME280_pressure;Samples;Min_cycle;Max_cycle;Signal;HPM_P1;HPM_P2
2021/01/09 00:00:57;;;;;;;32.15;21.30;;;0.80;94.70;;;;;;5058055;28;20904;-83
2021/01/09 00:03:24;;;;;;;29.95;21.23;;;0.80;94.50;;;;;;5073434;28;20463;-83
2021/01/09 00:05:55;;;;;;;31.07;21.23;;;0.80;94.50;;;;;;5077806;28;20456;-83
2021/01/09 00:08:21;;;;;;;30.93;21.90;;;0.80;94.70;;;;;;5061412;28;20404;-83
2021/01/09 00:10:52;;;;;;;32.08;22.48;;;0.80;94.70;;;;;;5057636;28;20415;-83
2021/01/09 00:13:19;;;;;;;29.60;21.80;;;0.70;94.80;;;;;;5056008;28;20481;-83
2021/01/09 00:15:48;;;;;;;32.05;22.05;;;0.80;95.00;;;;;;5057729;28;20413;-83
2021/01/09 00:18:16;;;;;;;31.75;21.50;;;0.80;94.70;;;;;;5064601;28;20517;-83
2021/01/09 00:20:42;;;;;;;31.10;22.13;;;0.90;94.60;;;;;;5077878;28;20786;-83
2021/01/09 00:23:11;;;;;;;30.90;21.65;;;0.80;94.60;;;;;;5070690;28;21180;-83
2021/01/09 00:25:37;;;;;;;34.15;23.10;;;0.80;94.80;;;;;;5075333;28;20473;-83
2021/01/09 00:28:04;;;;;;;32.63;21.63;;;0.70;94.80;;;;;;5055441;28;20404;-82
2021/01/09 00:30:32;;;;;;;32.63;21.97;;;0.90;94.90;;;;;;5075630;28;20878;-83
2021/01/09 00:32:58;;;;;;;31.05;22.10;;;0.90;94.30;;;;;;5057216;28;20449;-83
2021/01/09 00:35:28;;;;;;;31.77;21.92;;;0.90;94.50;;;;;;5074617;28;20409;-83
2021/01/09 00:37:54;;;;;;;30.42;22.15;;;0.90;94.30;;;;;;5095241;28;20447;-83
2021/01/09 00:40:20;;;;;;;32.58;23.15;;;0.80;94.50;;;;;;5059464;28;20416;-82
2021/01/09 00:42:50;;;;;;;31.33;22.27;;;0.70;94.60;;;;;;5074709;28;20408;-83
2021/01/09 00:45:19;;;;;;;35.13;22.38;;;0.80;94.70;;;;;;5067390;28;20488;-83
2021/01/09 00:47:45;;;;;;;34.15;23.73;;;0.70;94.80;;;;;;5094920;28;20413;-83
2021/01/09 00:50:16;;;;;;;31.58;22.35;;;0.70;94.70;;;;;;5091835;28;20398;-83
2021/01/09 00:52:42;;;;;;;31.83;21.80;;;0.70;94.70;;;;;;5077682;28;20514;-83
2021/01/09 00:55:12;;;;;;;30.40;22.08;;;0.70;94.60;;;;;;5074694;28;20868;-83
2021/01/09 00:57:38;;;;;;;30.77;21.70;;;0.70;94.60;;;;;;5076720;28;20398;-83
2021/01/09 01:00:08;;;;;;;31.75;22.58;;;0.80;94.60;;;;;;5074028;28;21141;-83
2021/01/09 01:02:34;;;;;;;31.58;22.40;;;0.80;94.40;;;;;;5076981;28;20402;-82
2021/01/09 01:05:03;;;;;;;31.37;21.87;;;0.80;94.50;;;;;;5074359;28;20409;-82
2021/01/09 01:07:34;;;;;;;35.10;23.15;;;0.70;94.60;;;;;;5076702;28;20445;-82
2021/01/09 01:10:04;;;;;;;31.38;22.17;;;0.80;94.70;;;;;;5076694;28;20409;-82
2021/01/09 01:12:32;;;;;;;31.38;21.70;;;0.80;94.50;;;;;;5092264;28;20761;-82
2021/01/09 01:15:00;;;;;;;30.33;21.58;;;0.90;94.20;;;;;;5076415;28;20467;-83
2021/01/09 01:17:27;;;;;;;31.00;22.08;;;0.90;94.00;;;;;;5074376;28;20416;-83
2021/01/09 01:19:54;;;;;;;31.65;22.05;;;0.90;94.00;;;;;;5094659;28;20475;-83
2021/01/09 01:22:20;;;;;;;29.08;20.63;;;0.90;94.20;;;;;;5062224;28;20453;-83
2021/01/09 01:24:46;;;;;;;30.35;22.17;;;0.80;94.00;;;;;;5074281;28;20465;-83
2021/01/09 01:27:13;;;;;;;30.77;22.33;;;0.80;94.20;;;;;;5063642;28;20864;-83
2021/01/09 01:29:39;;;;;;;32.40;23.08;;;0.80;94.30;;;;;;5076944;28;20405;-83
2021/01/09 01:32:06;;;;;;;32.50;22.87;;;0.70;94.50;;;;;;5067109;28;20423;-83
2021/01/09 01:34:33;;;;;;;33.22;22.30;;;0.70;94.60;;;;;;5056447;28;20914;-82
2021/01/09 01:36:59;;;;;;;31.20;22.53;;;0.80;94.50;;;;;;5074530;28;20789;-83
2021/01/09 01:39:26;;;;;;;35.05;23.33;;;0.80;94.50;;;;;;5076095;28;20919;-83
2021/01/09 01:41:55;;;;;;;32.40;22.48;;;0.80;94.60;;;;;;5076620;28;20390;-83
2021/01/09 01:44:22;;;;;;;32.25;22.73;;;0.70;94.30;;;;;;5090245;28;20476;-83
2021/01/09 01:46:49;;;;;;;30.60;21.88;;;0.70;94.40;;;;;;5076177;28;20938;-83
2021/01/09 01:49:16;;;;;;;30.83;21.75;;;0.80;94.30;;;;;;5073293;28;20421;-82
2021/01/09 01:51:43;;;;;;;30.70;22.02;;;0.90;93.80;;;;;;5093831;28;20447;-83
2021/01/09 01:54:10;;;;;;;33.40;24.05;;;0.80;94.00;;;;;;5072996;28;20443;-83
2021/01/09 01:56:38;;;;;;;32.87;22.93;;;0.80;94.30;;;;;;5075891;28;20455;-82
2021/01/09 01:59:05;;;;;;;30.83;22.30;;;0.70;94.30;;;;;;5072836;28;20455;-83
2021/01/09 02:01:34;;;;;;;33.38;22.73;;;0.70;94.30;;;;;;5075933;28;20405;-83
2021/01/09 02:04:04;;;;;;;31.58;22.85;;;0.70;94.20;;;;;;5091014;28;20410;-83
2021/01/09 02:06:34;;;;;;;35.40;23.20;;;0.70;94.30;;;;;;5093371;28;20440;-83
2021/01/09 02:09:11;;;;;;;33.77;22.60;;;0.80;94.10;;;;;;5073119;28;20416;-83
2021/01/09 02:12:01;;;;;;;30.17;21.35;;;0.80;94.30;;;;;;5074864;28;20420;-83
2021/01/09 02:14:42;;;;;;;30.45;21.80;;;0.80;93.80;;;;;;5091332;28;20422;-83
2021/01/09 02:17:10;;;;;;;32.17;22.45;;;0.80;93.80;;;;;;5075085;28;20413;-83
2021/01/09 02:19:40;;;;;;;29.65;21.58;;;0.70;93.90;;;;;;5073264;28;20433;-83
2021/01/09 02:22:12;;;;;;;35.80;23.10;;;0.70;94.00;;;;;;5093321;28;20986;-83
2021/01/09 02:24:39;;;;;;;31.00;21.95;;;0.70;94.10;;;;;;5090624;28;20394;-83
2021/01/09 02:27:06;;;;;;;30.48;21.77;;;0.80;94.10;;;;;;5075325;28;20414;-83
2021/01/09 02:30:00;;;;;;;29.52;21.65;;;0.70;94.10;;;;;;5092998;28;20471;-83
2021/01/09 02:32:30;;;;;;;32.90;23.08;;;0.70;94.30;;;;;;5072956;28;20465;-83
2021/01/09 02:34:59;;;;;;;29.15;20.75;;;0.70;94.30;;;;;;5055178;28;20885;-83
2021/01/09 02:37:26;;;;;;;29.17;20.40;;;0.70;94.00;;;;;;5091413;28;20424;-83
2021/01/09 02:39:54;;;;;;;31.42;21.27;;;0.80;93.70;;;;;;5093081;28;20426;-83
2021/01/09 02:42:23;;;;;;;29.52;21.17;;;0.80;93.80;;;;;;5055823;28;20912;-83
2021/01/09 02:44:52;;;;;;;30.23;21.02;;;0.70;93.90;;;;;;5055194;28;20407;-83
2021/01/09 02:47:19;;;;;;;31.90;21.73;;;0.70;93.90;;;;;;5084456;28;20467;-83
2021/01/09 02:49:46;;;;;;;30.42;21.13;;;0.70;94.00;;;;;;5074524;28;20485;-83
2021/01/09 02:52:15;;;;;;;28.38;20.77;;;0.70;94.00;;;;;;5072379;28;20471;-82
2021/01/09 02:54:41;;;;;;;30.17;21.63;;;0.70;93.90;;;;;;5092343;28;20433;-82
2021/01/09 02:57:08;;;;;;;27.93;19.60;;;0.60;93.80;;;;;;5090009;28;20472;-83
2021/01/09 02:59:34;;;;;;;27.67;20.10;;;0.70;93.50;;;;;;5074823;28;20475;-83
2021/01/09 03:02:01;;;;;;;27.55;20.02;;;0.70;93.50;;;;;;5086755;28;20412;-83
2021/01/09 03:04:28;;;;;;;28.03;19.33;;;0.70;93.30;;;;;;5071922;28;20446;-83
2021/01/09 03:06:54;;;;;;;27.55;19.17;;;0.70;93.70;;;;;;5070811;28;20408;-83
2021/01/09 03:09:21;;;;;;;27.63;19.67;;;0.70;93.40;;;;;;5074635;28;20410;-83
2021/01/09 03:11:47;;;;;;;26.53;19.47;;;0.70;93.50;;;;;;5073949;28;20902;-83
2021/01/09 03:14:14;;;;;;;29.23;19.75;;;0.60;93.60;;;;;;5090135;28;20777;-83
2021/01/09 03:16:43;;;;;;;27.33;19.80;;;0.70;93.60;;;;;;5074887;28;20799;-83
2021/01/09 03:19:09;;;;;;;27.80;19.25;;;0.70;93.60;;;;;;5089860;28;20426;-82
2021/01/09 03:21:36;;;;;;;27.40;19.17;;;0.70;93.40;;;;;;5074284;28;20477;-83
2021/01/09 03:24:02;;;;;;;28.15;18.92;;;0.70;93.40;;;;;;5070902;28;20413;-83
2021/01/09 03:26:30;;;;;;;26.38;18.50;;;0.70;93.40;;;;;;5074039;28;20406;-83
2021/01/09 03:28:57;;;;;;;26.98;19.08;;;0.70;93.40;;;;;;5071355;28;20436;-83
2021/01/09 03:31:24;;;;;;;26.42;18.52;;;0.80;93.10;;;;;;5092472;28;20929;-83
2021/01/09 03:33:51;;;;;;;26.55;18.90;;;0.80;93.30;;;;;;5071478;28;20899;-82
2021/01/09 03:36:17;;;;;;;26.33;19.17;;;0.70;93.30;;;;;;5092173;28;20401;-83
2021/01/09 03:38:45;;;;;;;26.83;18.05;;;0.70;93.40;;;;;;5071358;28;20429;-83
2021/01/09 03:41:11;;;;;;;25.00;17.67;;;0.70;93.00;;;;;;5091898;28;20410;-82
2021/01/09 03:43:38;;;;;;;25.00;18.35;;;0.70;93.00;;;;;;5092075;28;20972;-83
2021/01/09 03:46:04;;;;;;;25.75;18.23;;;0.80;92.90;;;;;;5089542;28;20485;-83
2021/01/09 03:48:31;;;;;;;24.30;17.98;;;0.80;92.70;;;;;;5073950;28;20737;-82
2021/01/09 03:51:00;;;;;;;25.65;18.65;;;0.70;92.70;;;;;;5071070;28;20410;-82
2021/01/09 03:53:27;;;;;;;26.23;18.23;;;0.70;92.80;;;;;;5091940;28;20420;-83
2021/01/09 03:55:53;;;;;;;25.27;18.45;;;0.70;92.80;;;;;;5071387;28;20402;-83
2021/01/09 03:58:20;;;;;;;28.38;19.60;;;0.70;92.80;;;;;;5091089;28;20424;-83
2021/01/09 04:00:48;;;;;;;28.80;19.53;;;0.70;92.90;;;;;;5071607;28;20402;-82
2021/01/09 04:03:15;;;;;;;28.23;19.15;;;0.70;93.00;;;;;;5074113;28;20424;-82
2021/01/09 04:05:41;;;;;;;29.50;19.88;;;0.70;92.90;;;;;;5088852;28;20417;-82
2021/01/09 04:08:08;;;;;;;29.53;19.90;;;0.70;93.10;;;;;;5074125;28;20417;-82
2021/01/09 04:10:36;;;;;;;27.52;19.63;;;0.70;93.20;;;;;;5088867;28;20498;-82
2021/01/09 04:13:06;;;;;;;27.05;19.55;;;0.70;93.10;;;;;;5091961;28;20413;-82
2021/01/09 04:15:32;;;;;;;29.27;20.42;;;0.80;93.10;;;;;;5091894;28;21038;-82
2021/01/09 04:17:59;;;;;;;27.83;19.63;;;0.70;93.20;;;;;;5071402;28;20402;-82
2021/01/09 04:20:29;;;;;;;28.45;20.20;;;0.70;92.90;;;;;;5074097;28;20408;-83
2021/01/09 04:22:58;;;;;;;31.52;20.65;;;0.70;93.00;;;;;;5070800;28;20425;-82
2021/01/09 04:25:24;;;;;;;26.42;20.02;;;0.70;93.10;;;;;;5073306;28;20513;-83
2021/01/09 04:27:51;;;;;;;26.30;19.30;;;0.70;93.20;;;;;;5076993;28;20874;-82
2021/01/09 04:30:18;;;;;;;28.07;20.53;;;0.70;92.90;;;;;;5053700;28;20403;-82
2021/01/09 04:32:47;;;;;;;27.27;19.35;;;0.80;93.20;;;;;;5077592;28;20478;-83
2021/01/09 04:35:14;;;;;;;28.70;20.77;;;0.70;93.20;;;;;;5093313;28;20459;-82
2021/01/09 04:37:40;;;;;;;29.48;21.00;;;0.70;93.20;;;;;;5087087;28;20431;-82
2021/01/09 04:40:07;;;;;;;29.42;20.38;;;0.70;93.10;;;;;;5074873;28;20905;-83
2021/01/09 04:42:34;;;;;;;28.58;20.25;;;0.70;93.10;;;;;;5075656;28;20448;-82
2021/01/09 04:45:01;;;;;;;29.55;21.08;;;0.70;93.10;;;;;;5095278;28;20454;-82
2021/01/09 04:47:32;;;;;;;28.42;20.80;;;0.80;93.30;;;;;;5095183;28;20760;-83
2021/01/09 04:50:01;;;;;;;30.45;21.15;;;0.70;93.00;;;;;;5094567;28;20463;-83
2021/01/09 04:52:30;;;;;;;32.17;22.57;;;0.70;93.20;;;;;;5095520;28;20410;-82
2021/01/09 04:54:57;;;;;;;32.08;21.52;;;0.70;93.40;;;;;;5092453;28;20413;-83
2021/01/09 04:57:24;;;;;;;29.00;21.23;;;0.70;93.20;;;;;;5094937;28;20925;-83
2021/01/09 04:59:52;;;;;;;30.67;21.55;;;0.70;93.50;;;;;;5073974;28;20422;-83
2021/01/09 05:02:21;;;;;;;31.15;22.00;;;0.70;93.20;;;;;;5076506;28;20406;-83
2021/01/09 05:04:48;;;;;;;30.83;22.35;;;0.70;93.20;;;;;;5092238;28;20405;-82
2021/01/09 05:07:15;;;;;;;31.58;21.95;;;0.70;93.40;;;;;;5094800;28;20391;-82
2021/01/09 05:09:43;;;;;;;34.33;24.37;;;0.70;93.50;;;;;;5091706;28;20443;-82
2021/01/09 05:12:10;;;;;;;40.60;27.80;;;0.70;93.60;;;;;;5076088;28;20406;-82
2021/01/09 05:14:42;;;;;;;55.67;35.95;;;0.80;93.80;;;;;;5074371;28;20473;-82
2021/01/09 05:17:08;;;;;;;55.67;36.58;;;0.80;93.90;;;;;;5094333;28;20891;-82
2021/01/09 05:19:37;;;;;;;58.75;37.80;;;0.80;94.00;;;;;;5071768;28;20428;-81
2021/01/09 05:22:05;;;;;;;50.33;35.00;;;0.80;94.10;;;;;;5090073;28;20422;-82
2021/01/09 05:24:35;;;;;;;48.25;34.78;;;0.70;94.10;;;;;;5076322;28;20414;-82
2021/01/09 05:27:02;;;;;;;47.58;33.03;;;0.70;94.10;;;;;;5074936;28;20459;-82
2021/01/09 05:29:30;;;;;;;45.70;31.67;;;0.80;94.00;;;;;;5076411;28;20398;-82
2021/01/09 05:31:57;;;;;;;42.08;29.65;;;0.70;94.10;;;;;;5091747;28;20965;-82
2021/01/09 05:34:26;;;;;;;39.55;28.42;;;0.80;94.00;;;;;;5076583;28;20406;-82
2021/01/09 05:36:52;;;;;;;40.90;27.98;;;0.80;93.90;;;;;;5060149;28;20454;-82
2021/01/09 05:39:19;;;;;;;37.72;26.88;;;0.70;94.00;;;;;;5056109;28;20472;-82
2021/01/09 05:41:46;;;;;;;39.10;26.23;;;0.80;94.00;;;;;;5081139;28;20429;-82
2021/01/09 05:44:12;;;;;;;35.10;24.58;;;0.80;93.90;;;;;;5075994;28;20429;-81
2021/01/09 05:46:40;;;;;;;33.75;24.65;;;0.80;93.80;;;;;;5085209;28;21076;-82
2021/01/09 05:49:11;;;;;;;34.97;25.02;;;0.80;93.90;;;;;;5073668;28;20442;-82
2021/01/09 05:51:38;;;;;;;33.58;24.15;;;0.80;93.90;;;;;;5054676;28;20821;-82
2021/01/09 05:54:08;;;;;;;35.67;24.30;;;0.80;93.60;;;;;;5055970;28;20449;-82
2021/01/09 05:56:39;;;;;;;34.35;24.15;;;0.80;93.60;;;;;;5073090;28;20392;-82
2021/01/09 05:59:09;;;;;;;36.03;25.02;;;0.80;93.70;;;;;;5093984;28;20430;-82
2021/01/09 06:01:41;;;;;;;40.20;27.55;;;0.80;93.60;;;;;;5075967;28;20441;-82
2021/01/09 06:04:15;;;;;;;38.15;26.13;;;0.70;93.70;;;;;;5054699;28;20769;-82
2021/01/09 06:06:49;;;;;;;36.50;25.70;;;0.70;93.80;;;;;;5072945;28;20396;-83
2021/01/09 06:09:27;;;;;;;33.57;24.60;;;0.70;93.90;;;;;;5053898;28;20786;-82
2021/01/09 06:11:55;;;;;;;39.03;26.67;;;0.70;93.90;;;;;;5055418;28;20404;-82
2021/01/09 06:14:26;;;;;;;38.75;26.75;;;0.70;93.90;;;;;;5053923;28;20438;-82
2021/01/09 06:16:55;;;;;;;37.60;26.55;;;0.70;93.90;;;;;;5073585;28;20400;-83
2021/01/09 06:19:22;;;;;;;43.38;28.92;;;0.70;94.00;;;;;;5085781;28;20429;-82
2021/01/09 06:21:50;;;;;;;39.43;28.97;;;0.70;94.10;;;;;;5085131;28;20493;-82
2021/01/09 06:24:18;;;;;;;39.05;27.77;;;0.70;94.00;;;;;;5061335;28;20469;-82
2021/01/09 06:26:45;;;;;;;39.17;27.35;;;0.70;94.00;;;;;;5072988;28;20412;-83
2021/01/09 06:29:19;;;;;;;40.70;28.33;;;0.70;94.00;;;;;;5070565;28;20465;-82
2021/01/09 06:32:06;;;;;;;44.20;29.75;;;0.70;94.10;;;;;;5075175;28;20413;-82
2021/01/09 06:34:38;;;;;;;43.88;30.42;;;0.60;94.10;;;;;;5072409;28;21107;-82
2021/01/09 06:37:05;;;;;;;40.08;28.30;;;0.70;94.20;;;;;;5075010;28;20398;-82
2021/01/09 06:39:38;;;;;;;40.13;28.02;;;0.60;94.10;;;;;;5090579;28;20498;-82
2021/01/09 06:42:08;;;;;;;52.97;33.58;;;0.70;94.20;;;;;;5075099;28;20804;-82
2021/01/09 06:44:35;;;;;;;223.37;98.03;;;0.70;94.00;;;;;;5090615;28;20418;-82
2021/01/09 06:47:04;;;;;;;172.20;79.65;;;0.70;93.80;;;;;;5074822;28;20406;-82
2021/01/09 06:49:31;;;;;;;78.10;43.97;;;0.70;93.60;;;;;;5072118;28;20467;-82
2021/01/09 06:52:03;;;;;;;42.85;27.58;;;0.70;93.60;;;;;;5054943;28;20762;-82
2021/01/09 06:54:38;;;;;;;41.95;28.33;;;0.70;93.70;;;;;;5054332;28;20415;-82
2021/01/09 06:57:20;;;;;;;41.35;28.58;;;0.70;93.90;;;;;;5052017;28;20419;-82
2021/01/09 06:59:51;;;;;;;39.53;27.70;;;0.60;93.90;;;;;;5054444;28;21266;-82
2021/01/09 07:02:17;;;;;;;41.57;27.60;;;0.60;94.10;;;;;;5067977;28;20797;-82
2021/01/09 07:04:55;;;;;;;42.83;29.30;;;0.60;93.80;;;;;;5074391;28;20966;-81
2021/01/09 07:07:27;;;;;;;81.05;48.13;;;0.60;93.80;;;;;;5071931;28;20404;-82
2021/01/09 07:09:59;;;;;;;69.57;40.10;;;0.60;93.90;;;;;;5074032;28;20398;-81
2021/01/09 07:12:30;;;;;;;51.72;34.22;;;0.70;93.90;;;;;;5085424;28;20426;-82
2021/01/09 07:15:05;;;;;;;48.67;33.03;;;0.60;94.10;;;;;;5074650;28;20811;-82
2021/01/09 07:17:34;;;;;;;50.22;34.35;;;0.60;94.30;;;;;;5090037;28;20417;-82
2021/01/09 07:20:03;;;;;;;48.72;33.38;;;0.60;94.50;;;;;;5074404;28;20425;-81
2021/01/09 07:22:31;;;;;;;48.55;32.60;;;0.60;94.50;;;;;;5082023;28;20429;-82
2021/01/09 07:25:00;;;;;;;45.47;32.03;;;0.60;94.70;;;;;;5064219;28;20419;-83
2021/01/09 07:27:48;;;;;;;44.25;31.10;;;0.60;94.50;;;;;;5064074;28;21215;-81
2021/01/09 07:30:17;;;;;;;45.33;31.97;;;0.70;94.60;;;;;;5060670;28;20806;-82
2021/01/09 07:32:51;;;;;;;46.40;30.53;;;0.60;94.60;;;;;;5063874;28;20432;-82
2021/01/09 07:35:40;;;;;;;44.55;30.50;;;0.60;94.70;;;;;;5081811;28;20418;-82
2021/01/09 07:38:07;;;;;;;45.63;31.35;;;0.70;94.40;;;;;;5077949;28;20402;-83
2021/01/09 07:40:50;;;;;;;60.50;36.17;;;0.70;94.50;;;;;;5065795;28;20766;-83
2021/01/09 07:43:41;;;;;;;55.17;36.30;;;0.70;94.30;;;;;;5089846;28;20433;-83
2021/01/09 07:46:28;;;;;;;56.20;36.83;;;0.70;94.30;;;;;;5072133;28;20739;-83
2021/01/09 07:49:00;;;;;;;61.67;38.57;;;0.80;94.00;;;;;;5067324;28;20424;-83
2021/01/09 07:51:49;;;;;;;56.88;36.67;;;0.80;93.90;;;;;;5073926;28;21041;-83
2021/01/09 07:54:38;;;;;;;48.10;31.67;;;0.80;94.10;;;;;;5090036;28;20471;-83
2021/01/09 07:57:20;;;;;;;45.70;31.35;;;0.90;94.00;;;;;;5074032;28;20973;-83
2021/01/09 07:59:47;;;;;;;42.20;29.83;;;0.90;94.00;;;;;;5064112;28;20423;-84
2021/01/09 08:02:28;;;;;;;42.60;29.83;;;0.90;93.90;;;;;;5067809;28;20406;-83
2021/01/09 08:05:05;;;;;;;40.47;27.67;;;0.90;93.90;;;;;;5063136;28;20445;-83
2021/01/09 08:07:43;;;;;;;42.03;27.57;;;1.00;93.60;;;;;;5074348;28;20469;-83
2021/01/09 08:10:29;;;;;;;39.25;27.30;;;1.00;93.70;;;;;;5092994;28;20460;-84
2021/01/09 08:13:04;;;;;;;39.05;26.88;;;1.10;93.50;;;;;;5077628;28;20445;-82
2021/01/09 08:15:33;;;;;;;42.23;28.30;;;1.20;93.40;;;;;;5075896;28;20478;-81
2021/01/09 08:18:03;;;;;;;38.75;25.73;;;1.20;93.50;;;;;;5077051;28;20508;-81
2021/01/09 08:20:30;;;;;;;37.00;25.25;;;1.30;93.30;;;;;;5074613;28;20418;-81
2021/01/09 08:23:01;;;;;;;34.38;23.30;;;1.40;92.50;;;;;;5115813;28;20396;-81
2021/01/09 08:25:32;;;;;;;34.90;23.02;;;1.50;91.70;;;;;;5088744;28;20484;-80
2021/01/09 08:28:01;;;;;;;34.60;23.67;;;1.40;91.50;;;;;;5077595;28;20453;-80
2021/01/09 08:30:33;;;;;;;32.10;22.65;;;1.40;91.80;;;;;;5092651;28;20987;-79
2021/01/09 08:33:07;;;;;;;34.97;23.10;;;1.40;91.40;;;;;;5095378;28;20835;-80
2021/01/09 08:35:35;;;;;;;33.13;23.15;;;1.40;91.40;;;;;;5092520;28;20397;-79
2021/01/09 08:38:03;;;;;;;32.38;21.95;;;1.60;91.10;;;;;;5094031;28;20462;-80
2021/01/09 08:40:31;;;;;;;31.75;22.40;;;1.70;90.60;;;;;;5094944;28;20480;-80
2021/01/09 08:43:06;;;;;;;31.85;22.95;;;1.70;90.50;;;;;;5090327;28;20882;-80
2021/01/09 08:45:45;;;;;;;31.65;21.95;;;1.70;90.60;;;;;;5097328;28;20540;-81
2021/01/09 08:48:13;;;;;;;32.08;23.25;;;1.80;90.40;;;;;;5072178;28;20762;-81
2021/01/09 08:50:46;;;;;;;32.22;22.80;;;1.80;90.50;;;;;;5077139;28;20418;-82
2021/01/09 08:53:16;;;;;;;30.80;21.67;;;1.80;90.50;;;;;;5083753;28;20434;-82
2021/01/09 08:55:43;;;;;;;32.85;22.75;;;1.90;90.30;;;;;;5094641;28;20455;-81
2021/01/09 08:58:12;;;;;;;30.08;21.58;;;1.90;90.60;;;;;;5061229;28;20408;-82
2021/01/09 09:00:39;;;;;;;28.60;22.13;;;2.00;90.50;;;;;;5056649;28;20901;-82
2021/01/09 09:03:09;;;;;;;30.42;21.42;;;2.00;90.30;;;;;;5082935;28;20414;-82
2021/01/09 09:05:40;;;;;;;26.60;20.15;;;2.00;89.90;;;;;;5094459;28;20414;-83
2021/01/09 09:08:10;;;;;;;29.05;20.75;;;2.10;89.40;;;;;;5070149;28;20887;-82
2021/01/09 09:10:39;;;;;;;27.92;20.70;;;2.10;89.80;;;;;;5075539;28;20430;-82
2021/01/09 09:13:24;;;;;;;31.45;21.85;;;2.10;89.00;;;;;;5092272;28;20421;-82
2021/01/09 09:15:52;;;;;;;31.65;20.60;;;2.20;89.80;;;;;;5076205;28;20468;-83
2021/01/09 09:18:20;;;;;;;28.55;19.60;;;2.30;88.70;;;;;;5073944;28;20434;-83
2021/01/09 09:20:51;;;;;;;28.73;20.10;;;2.30;88.00;;;;;;5093207;28;20418;-83
2021/01/09 09:23:22;;;;;;;26.17;19.15;;;2.40;87.70;;;;;;5068552;28;20822;-83
2021/01/09 09:26:29;;;;;;;25.38;18.88;;;2.40;87.60;;;;;;5076513;28;20410;-82
2021/01/09 09:28:56;;;;;;;26.85;20.02;;;2.50;87.10;;;;;;5058927;28;20424;-81
2021/01/09 09:31:27;;;;;;;31.77;22.48;;;2.50;88.30;;;;;;5073822;28;20404;-80
2021/01/09 09:34:07;;;;;;;27.77;19.70;;;2.60;87.40;;;;;;5051900;28;20414;-81
2021/01/09 09:36:56;;;;;;;26.90;19.27;;;2.60;86.60;;;;;;5044812;28;20406;-82
2021/01/09 09:39:25;;;;;;;29.27;19.48;;;2.70;86.60;;;;;;5074673;28;20422;-82
2021/01/09 09:41:59;;;;;;;26.55;18.40;;;2.80;85.60;;;;;;5094368;28;20865;-82
2021/01/09 09:44:45;;;;;;;26.30;18.88;;;2.80;84.40;;;;;;5073978;28;20481;-81
2021/01/09 09:47:27;;;;;;;25.75;17.98;;;2.80;84.10;;;;;;5075979;28;20455;-81
2021/01/09 09:50:12;;;;;;;26.27;17.60;;;2.90;84.40;;;;;;5092229;28;20417;-80
2021/01/09 09:52:41;;;;;;;29.13;19.77;;;2.90;83.60;;;;;;5096260;28;20432;-81
2021/01/09 09:55:09;;;;;;;33.03;21.67;;;2.90;84.30;;;;;;5090224;28;21130;-81
2021/01/09 09:57:36;;;;;;;26.08;17.50;;;2.90;84.10;;;;;;5075757;28;20400;-81
2021/01/09 10:00:08;;;;;;;24.00;17.17;;;2.90;83.40;;;;;;5075595;28;20421;-81
2021/01/09 10:02:35;;;;;;;24.83;17.85;;;3.00;83.60;;;;;;5091608;28;20880;-81
2021/01/09 10:05:12;;;;;;;27.83;18.88;;;3.00;84.20;;;;;;5075718;28;20409;-80
2021/01/09 10:07:39;;;;;;;26.27;17.92;;;3.10;83.00;;;;;;5073588;28;20413;-81
2021/01/09 10:10:16;;;;;;;26.92;18.75;;;3.10;82.90;;;;;;5075735;28;20495;-82
2021/01/09 10:12:54;;;;;;;28.30;18.90;;;3.10;82.40;;;;;;5091189;28;20426;-82
2021/01/09 10:15:20;;;;;;;25.63;17.38;;;3.20;83.50;;;;;;5075511;28;20497;-82
2021/01/09 10:17:57;;;;;;;27.92;18.67;;;3.30;83.30;;;;;;5073102;28;20402;-82
2021/01/09 10:20:24;;;;;;;26.40;17.65;;;3.40;82.20;;;;;;5074945;28;20461;-83
2021/01/09 10:22:51;;;;;;;26.52;18.13;;;3.50;82.00;;;;;;5083532;28;20870;-82
2021/01/09 10:25:20;;;;;;;24.17;16.93;;;3.60;80.50;;;;;;5074905;28;20405;-80
2021/01/09 10:27:46;;;;;;;24.77;17.70;;;3.60;81.50;;;;;;5090336;28;20402;-80
2021/01/09 10:30:13;;;;;;;23.70;17.27;;;3.70;81.40;;;;;;5093047;28;20398;-80
2021/01/09 10:32:40;;;;;;;23.88;17.15;;;3.80;81.40;;;;;;5071264;28;20438;-79
2021/01/09 10:35:07;;;;;;;25.33;17.60;;;3.90;79.90;;;;;;5092609;28;20760;-81
2021/01/09 10:37:34;;;;;;;23.60;16.65;;;3.70;78.80;;;;;;5065427;28;20409;-81
2021/01/09 10:40:00;;;;;;;25.70;18.33;;;3.50;79.00;;;;;;5054689;28;20894;-80
2021/01/09 10:42:30;;;;;;;27.23;18.75;;;3.50;79.80;;;;;;5064956;28;20402;-79
2021/01/09 10:44:57;;;;;;;27.35;19.02;;;3.40;79.70;;;;;;5092018;28;20402;-82
2021/01/09 10:47:24;;;;;;;34.25;22.73;;;3.40;81.20;;;;;;5074981;28;20390;-81
2021/01/09 10:49:55;;;;;;;34.63;23.33;;;3.40;81.50;;;;;;5072592;28;20410;-81
2021/01/09 10:52:22;;;;;;;29.15;20.48;;;3.40;80.00;;;;;;5092305;28;20405;-82
2021/01/09 10:54:48;;;;;;;33.05;22.90;;;3.50;80.00;;;;;;5071777;28;20815;-80
2021/01/09 10:57:15;;;;;;;35.63;24.30;;;3.70;80.10;;;;;;5074510;28;20406;-82
2021/01/09 10:59:42;;;;;;;39.10;25.40;;;3.80;79.80;;;;;;5089481;28;20418;-81
2021/01/09 11:02:09;;;;;;;47.92;31.58;;;3.80;79.60;;;;;;5074140;28;20394;-81
2021/01/09 11:04:36;;;;;;;32.50;22.05;;;3.80;79.50;;;;;;5082179;28;20886;-83
2021/01/09 11:07:02;;;;;;;31.60;23.80;;;3.70;80.70;;;;;;5070295;28;20446;-82
2021/01/09 11:09:28;;;;;;;29.52;22.25;;;3.70;81.00;;;;;;5087794;28;20438;-82
2021/01/09 11:11:55;;;;;;;32.23;23.50;;;3.70;80.40;;;;;;5092351;28;20455;-79
2021/01/09 11:14:21;;;;;;;30.25;21.75;;;3.80;80.80;;;;;;5072080;28;20463;-79
2021/01/09 11:16:54;;;;;;;29.45;21.02;;;3.80;80.80;;;;;;5091972;28;20402;-80
2021/01/09 11:19:21;;;;;;;29.50;22.87;;;3.80;79.60;;;;;;5074044;28;20413;-80
2021/01/09 11:21:48;;;;;;;32.13;24.17;;;3.90;79.60;;;;;;5066757;28;20898;-80
2021/01/09 11:24:17;;;;;;;32.63;24.43;;;3.80;79.20;;;;;;5073866;28;20428;-80
2021/01/09 11:26:44;;;;;;;27.70;21.10;;;3.80;79.10;;;;;;5089278;28;20433;-80
2021/01/09 11:29:13;;;;;;;27.77;20.40;;;3.80;79.60;;;;;;5074134;28;20394;-80
2021/01/09 11:31:39;;;;;;;27.48;20.65;;;3.80;77.70;;;;;;5083935;28;20399;-80
2021/01/09 11:34:06;;;;;;;30.45;21.23;;;3.60;77.60;;;;;;5088291;28;20414;-80
2021/01/09 11:36:32;;;;;;;29.02;21.73;;;3.20;78.30;;;;;;5081461;28;20406;-80
2021/01/09 11:38:58;;;;;;;29.67;21.00;;;3.20;79.80;;;;;;5080983;28;20872;-80
2021/01/09 11:41:25;;;;;;;28.13;21.13;;;3.30;79.20;;;;;;5089670;28;20487;-80
2021/01/09 11:43:51;;;;;;;29.13;22.13;;;3.40;79.70;;;;;;5076436;28;20406;-80
2021/01/09 11:46:26;;;;;;;28.58;20.65;;;3.60;79.00;;;;;;5078213;28;20401;-80
2021/01/09 11:48:53;;;;;;;29.20;21.35;;;3.90;79.10;;;;;;5098622;28;20447;-80
2021/01/09 11:51:23;;;;;;;28.30;21.27;;;4.10;78.20;;;;;;5069591;28;20902;-81
2021/01/09 11:53:51;;;;;;;26.93;20.17;;;4.30;78.70;;;;;;5060773;28;20399;-82
2021/01/09 11:56:22;;;;;;;26.63;19.90;;;4.30;77.00;;;;;;5077513;28;20814;-79
2021/01/09 11:58:49;;;;;;;29.98;20.70;;;4.30;77.20;;;;;;5060522;28;20432;-80
2021/01/09 12:01:16;;;;;;;27.33;20.52;;;4.20;76.20;;;;;;5060115;28;20495;-80
2021/01/09 12:03:42;;;;;;;27.80;21.02;;;4.10;76.30;;;;;;5072542;28;20406;-81
2021/01/09 12:06:09;;;;;;;29.27;21.35;;;3.90;77.10;;;;;;5079829;28;20444;-80
2021/01/09 12:08:36;;;;;;;30.52;21.30;;;3.90;77.00;;;;;;5077168;28;20475;-80
2021/01/09 12:11:03;;;;;;;29.35;22.02;;;3.90;78.70;;;;;;5098211;28;20460;-81
2021/01/09 12:13:31;;;;;;;28.55;20.80;;;3.90;77.80;;;;;;5088092;28;20492;-80
2021/01/09 12:15:59;;;;;;;29.30;22.02;;;3.80;78.50;;;;;;5060658;28;20407;-81
2021/01/09 12:18:26;;;;;;;29.27;22.00;;;3.80;77.90;;;;;;5064199;28;20467;-80
2021/01/09 12:20:52;;;;;;;30.17;21.00;;;3.80;78.60;;;;;;5079689;28;20412;-82
2021/01/09 12:23:19;;;;;;;29.35;21.83;;;3.80;78.60;;;;;;5077450;28;20406;-82
2021/01/09 12:25:47;;;;;;;31.13;21.98;;;3.80;78.40;;;;;;5098223;28;20410;-82
2021/01/09 12:28:14;;;;;;;30.17;22.37;;;3.80;79.00;;;;;;5080072;28;20907;-82
2021/01/09 12:30:40;;;;;;;28.25;21.33;;;3.80;78.80;;;;;;5095490;28;20413;-82
2021/01/09 12:33:07;;;;;;;29.95;21.55;;;3.90;77.50;;;;;;5097737;28;20907;-81
2021/01/09 12:35:34;;;;;;;28.98;21.83;;;4.00;77.60;;;;;;5077830;28;20908;-82
2021/01/09 12:38:03;;;;;;;29.42;21.33;;;4.00;76.80;;;;;;5080113;28;20426;-82
2021/01/09 12:40:31;;;;;;;29.83;21.45;;;4.10;77.10;;;;;;5077392;28;20424;-82
2021/01/09 12:42:58;;;;;;;31.02;22.23;;;4.20;76.80;;;;;;5097881;28;20390;-82
2021/01/09 12:45:27;;;;;;;32.08;22.95;;;4.20;76.80;;;;;;5085871;28;20411;-82
2021/01/09 12:47:53;;;;;;;30.33;23.30;;;4.10;77.50;;;;;;5059721;28;20396;-82